Jack Brusco — WDC3066 — position and weather

sailwx.info

Track history (hours):
 
Tides and Currents Weather Stations Pressure Air Temp Water Temp Dewpoint Dewpoint Depression Visibility Wind Speed Wind Dir Waves Ship Positions

Jack Brusco

More information available from US FCC via Universal Licensing System and Coast Guard Vessel Documentation Center.

Last reported at 2014-Aug-19 06:00 UTC. Time now 2014-Aug-21 16:07 UTC.
Position N 52°48' W 153°54'.

Length 36 m; draft 5.2 m.

Type: Tug. MMSI: 3699086.

Wind from 140 at 5 knots

Barometer 1018.5 mb
Air temperature 14.4 ° C
Visibility: greater than 10.8 NM

Date/timePositionNaut miles runAvg speedWind from/ knotsBaromVisibWave heightAir tempDewpointWater temp
2014-Aug-19 06:00N 52°48' W 153°54'418 8.7 140 / 51018.510.8 14.4
2014-Aug-17 06:00N 51°12' W 142°54'463 9.6 210 / 251015.5 2.2 1.015.6
2014-Aug-15 06:00N 49°30' W 131°06'184 9.4 320 / 141016.010.8 0.518.3 -0.0
2014-Aug-14 10:23N 48°49' W 126°31'8 9.2
2014-Aug-14 09:32N 48°47' W 126°20'10 9.5
2014-Aug-14 08:31N 48°45' W 126°05'1010.0
2014-Aug-14 07:32N 48°43' W 125°51'1110.1
2014-Aug-14 06:29N 48°40' W 125°35'1510.9
2014-Aug-14 05:05N 48°36' W 125°13'611.2
2014-Aug-14 04:33N 48°35' W 125°04'1111.1
2014-Aug-14 03:33N 48°32' W 124°48'1010.2
2014-Aug-14 02:33N 48°29' W 124°33'10 9.4
2014-Aug-14 01:33N 48°26' W 124°20'8 8.0
2014-Aug-14 00:33N 48°22' W 124°09'20 8.9
2014-Aug-13 22:17N 48°17' W 123°40'7 9.8
2014-Aug-13 21:33N 48°16' W 123°29'510.2
2014-Aug-13 21:07N 48°15' W 123°22'611.3
2014-Aug-13 20:33N 48°14' W 123°13'3411.4
2014-Aug-13 17:33N 47°56' W 122°30'111.7
2014-Aug-13 17:26N 47°55' W 122°29'1011.2
2014-Aug-13 16:33N 47°45' W 122°25'010.6
2014-Aug-13 16:32N 47°45' W 122°25'4 3.9
2014-Aug-13 15:33N 47°41' W 122°25'0 1.0
2014-Aug-13 15:32N 47°41' W 122°25'0 0.5
2014-Aug-13 14:33N 47°41' W 122°26'0 1.5
2014-Aug-13 14:32N 47°40' W 122°26'6 5.8
2014-Aug-13 13:33N 47°35' W 122°22'0 0.0
2014-Aug-13 13:32N 47°35' W 122°22'0 0.0
2014-Aug-13 12:33N 47°35' W 122°22'0 0.0
2014-Aug-13 12:32N 47°35' W 122°22'0 0.0
2014-Aug-13 11:33N 47°35' W 122°22'0 0.0
2014-Aug-13 11:32N 47°35' W 122°22'0 0.0
2014-Aug-13 10:33N 47°35' W 122°22'0 0.0
2014-Aug-13 10:31N 47°35' W 122°22'0 0.0
2014-Aug-13 09:33N 47°35' W 122°22'0 0.2
2014-Aug-13 09:31N 47°35' W 122°22'0 0.0
2014-Aug-13 08:33N 47°35' W 122°22'0 0.0
2014-Aug-13 08:31N 47°35' W 122°22'1 0.7
2014-Aug-13 07:33N 47°35' W 122°21'0 0.0
2014-Aug-13 07:31N 47°35' W 122°21'0 0.0
2014-Aug-13 06:33N 47°35' W 122°21'0 0.0
2014-Aug-13 06:31N 47°35' W 122°21'0 0.0
2014-Aug-13 05:35N 47°35' W 122°21'0 0.0
2014-Aug-13 05:33N 47°35' W 122°21'0 0.0
2014-Aug-13 04:33N 47°35' W 122°21'0 0.0
2014-Aug-13 04:31N 47°35' W 122°21'0 0.0
2014-Aug-13 03:33N 47°35' W 122°21'0 0.0
2014-Aug-13 03:31N 47°35' W 122°21'6 5.8
2014-Aug-13 02:33N 47°39' W 122°27'011.4
2014-Aug-13 02:31N 47°40' W 122°27'2 2.2
2014-Aug-13 01:33N 47°40' W 122°23'0 0.0
2014-Aug-13 01:30N 47°40' W 122°23'1 1.3
2014-Aug-13 00:33N 47°39' W 122°22'0 0.0
2014-Aug-13 00:30N 47°39' W 122°22'0 0.0
2014-Aug-12 23:34N 47°39' W 122°22'0 0.0
2014-Aug-12 23:30N 47°39' W 122°22'0 0.0
2014-Aug-12 22:33N 47°39' W 122°22'0 0.0
2014-Aug-12 22:30N 47°39' W 122°22'0 0.0
2014-Aug-12 21:33N 47°39' W 122°22'0 0.0
2014-Aug-12 21:30N 47°39' W 122°22'0 0.0
2014-Aug-12 20:33N 47°39' W 122°22'0 0.0
2014-Aug-12 20:30N 47°39' W 122°22'0 0.0
2014-Aug-12 19:33N 47°39' W 122°22'0 0.0
2014-Aug-12 19:30N 47°39' W 122°22'0 0.0
2014-Aug-12 18:33N 47°39' W 122°22'0 0.0
2014-Aug-12 18:30N 47°39' W 122°22'0 0.0
2014-Aug-12 17:31N 47°39' W 122°22'0 0.0
2014-Aug-12 17:29N 47°39' W 122°22'0 0.0
2014-Aug-12 16:29N 47°39' W 122°22'0 0.0
2014-Aug-12 16:28N 47°39' W 122°22'0 0.0
2014-Aug-12 15:33N 47°39' W 122°22'0 0.0
2014-Aug-12 15:33N 47°39' W 122°22'0 0.0
2014-Aug-12 14:34N 47°39' W 122°22'0 0.0
2014-Aug-12 14:33N 47°39' W 122°22'0 0.0
2014-Aug-12 13:34N 47°39' W 122°22'0 0.0
2014-Aug-12 13:33N 47°39' W 122°22'0 0.0
2014-Aug-12 12:33N 47°39' W 122°22'0 0.0
2014-Aug-12 11:33N 47°39' W 122°22'0 0.0
2014-Aug-12 11:33N 47°39' W 122°22'0 0.0
2014-Aug-12 10:34N 47°39' W 122°22'0 0.0
2014-Aug-12 10:33N 47°39' W 122°22'0 0.0
2014-Aug-12 08:46N 47°39' W 122°22'0 0.0
2014-Aug-12 08:33N 47°39' W 122°22'0 0.0
2014-Aug-12 08:31N 47°39' W 122°22'0 0.0
2014-Aug-12 07:33N 47°39' W 122°22'0 0.0
2014-Aug-12 07:31N 47°39' W 122°22'0 0.0
2014-Aug-12 06:34N 47°39' W 122°22'0 0.0
2014-Aug-12 06:31N 47°39' W 122°22'0 0.0
2014-Aug-12 05:56N 47°39' W 122°22'0 0.0
2014-Aug-12 05:34N 47°39' W 122°22'0 0.0
2014-Aug-12 04:34N 47°39' W 122°22'0 0.0
2014-Aug-12 04:31N 47°39' W 122°22'0 0.0
2014-Aug-12 03:34N 47°39' W 122°22'0 0.0
2014-Aug-12 03:31N 47°39' W 122°22'0 0.0
2014-Aug-12 02:34N 47°39' W 122°22'0 0.0
2014-Aug-12 02:31N 47°39' W 122°22'0 0.0
2014-Aug-12 01:33N 47°39' W 122°22'0 0.0
2014-Aug-12 01:30N 47°39' W 122°22'0 0.0
2014-Aug-12 00:33N 47°39' W 122°22'0 0.0
2014-Aug-12 00:30N 47°39' W 122°22'0 0.0
2014-Aug-11 23:33N 47°39' W 122°22'0 0.0
2014-Aug-11 23:30N 47°39' W 122°22'0 0.0
2014-Aug-11 22:34N 47°39' W 122°22'0 0.0
2014-Aug-11 22:30N 47°39' W 122°22'0 0.0
2014-Aug-11 21:34N 47°39' W 122°22'0 0.0
2014-Aug-11 21:30N 47°39' W 122°22'0 0.0
2014-Aug-11 20:34N 47°39' W 122°22'0 0.0
2014-Aug-11 20:30N 47°39' W 122°22'0 0.0
2014-Aug-11 19:08N 47°39' W 122°22'0 0.0
2014-Aug-11 19:08N 47°39' W 122°22'0 0.0
2014-Aug-11 18:34N 47°39' W 122°22'0 0.0
2014-Aug-11 18:33N 47°39' W 122°22'0 0.0
2014-Aug-11 17:33N 47°39' W 122°22'0 0.0
2014-Aug-11 17:33N 47°39' W 122°22'0 0.3
2014-Aug-11 16:34N 47°39' W 122°22'0 5.3
2014-Aug-11 16:32N 47°39' W 122°22'1 1.1
2014-Aug-11 15:33N 47°40' W 122°24'0 0.0
2014-Aug-11 15:32N 47°40' W 122°24'0 0.2
2014-Aug-11 14:34N 47°40' W 122°24'0 3.7
2014-Aug-11 14:32N 47°40' W 122°24'1 1.3
2014-Aug-11 13:33N 47°41' W 122°25'0 0.0
2014-Aug-11 13:32N 47°41' W 122°25'6 6.0
2014-Aug-11 12:33N 47°35' W 122°22'0 0.0
2014-Aug-11 12:31N 47°35' W 122°22'0 0.2
2014-Aug-11 11:33N 47°36' W 122°22'0 0.0
2014-Aug-11 11:32N 47°36' W 122°22'4 4.0
2014-Aug-11 10:33N 47°38' W 122°27'0 5.0
2014-Aug-11 10:31N 47°38' W 122°27'5 5.3
2014-Aug-11 09:34N 47°43' W 122°28'0 5.2
2014-Aug-11 09:31N 47°43' W 122°28'6 6.1
2014-Aug-11 08:34N 47°49' W 122°28'0 5.2
2014-Aug-11 08:31N 47°49' W 122°28'6 6.1
2014-Aug-11 07:34N 47°55' W 122°31'0 5.7
2014-Aug-11 07:31N 47°55' W 122°31'7 5.8
2014-Aug-11 06:20N 48°00' W 122°38'3 4.8
2014-Aug-11 05:39N 48°03' W 122°39'22 6.1
2014-Aug-11 02:08N 48°25' W 122°45'5 7.7
2014-Aug-11 01:31N 48°29' W 122°45'6 6.1
2014-Aug-11 00:27N 48°36' W 122°45'4 4.4
2014-Aug-10 23:33N 48°40' W 122°44'7 5.8
2014-Aug-10 22:23N 48°45' W 122°49'6 7.5
2014-Aug-10 21:32N 48°49' W 122°57'8 7.9
2014-Aug-10 20:34N 48°53' W 123°06'9 8.5
2014-Aug-10 19:33N 48°59' W 123°17'9 8.6
2014-Aug-10 18:33N 49°04' W 123°27'9 9.1
2014-Aug-10 17:33N 49°10' W 123°37'9 9.5
2014-Aug-10 16:33N 49°17' W 123°48'12 9.3
2014-Aug-10 15:12N 49°25' W 124°02'142 7.1
2014-Aug-09 19:09N 50°45' W 127°05'6 9.3
2014-Aug-09 18:33N 50°48' W 127°12'9 9.3
2014-Aug-09 17:33N 50°54' W 127°23'9 9.2
2014-Aug-09 16:33N 50°60' W 127°34'9 8.5
2014-Aug-09 15:33N 51°05' W 127°45'  
Track history (hours):
 
Tides and Currents Weather Stations Pressure Air Temp Water Temp Dewpoint Dewpoint Depression Visibility Wind Speed Wind Dir Waves Ship Positions

Jack Brusco

More information available from US FCC via Universal Licensing System and Coast Guard Vessel Documentation Center.

Last reported at 2014-Aug-19 06:00 UTC. Time now 2014-Aug-21 16:07 UTC.
Position N 52°48' W 153°54'.

Length 36 m; draft 5.2 m.

Type: Tug. MMSI: 3699086.

Wind from 140 at 5 knots

Barometer 1018.5 mb
Air temperature 14.4 ° C
Visibility: greater than 10.8 NM

Date/timePositionNaut miles runAvg speedWind from/ knotsBaromVisibWave heightAir tempDewpointWater temp
2014-Aug-19 06:00N 52°48' W 153°54'418 8.7 140 / 51018.510.8 14.4
2014-Aug-17 06:00N 51°12' W 142°54'463 9.6 210 / 251015.5 2.2 1.015.6
2014-Aug-15 06:00N 49°30' W 131°06'184 9.4 320 / 141016.010.8 0.518.3 -0.0
2014-Aug-14 10:23N 48°49' W 126°31'8 9.2
2014-Aug-14 09:32N 48°47' W 126°20'10 9.5
2014-Aug-14 08:31N 48°45' W 126°05'1010.0
2014-Aug-14 07:32N 48°43' W 125°51'1110.1
2014-Aug-14 06:29N 48°40' W 125°35'1510.9
2014-Aug-14 05:05N 48°36' W 125°13'611.2
2014-Aug-14 04:33N 48°35' W 125°04'1111.1
2014-Aug-14 03:33N 48°32' W 124°48'1010.2
2014-Aug-14 02:33N 48°29' W 124°33'10 9.4
2014-Aug-14 01:33N 48°26' W 124°20'8 8.0
2014-Aug-14 00:33N 48°22' W 124°09'20 8.9
2014-Aug-13 22:17N 48°17' W 123°40'7 9.8
2014-Aug-13 21:33N 48°16' W 123°29'510.2
2014-Aug-13 21:07N 48°15' W 123°22'611.3
2014-Aug-13 20:33N 48°14' W 123°13'3411.4
2014-Aug-13 17:33N 47°56' W 122°30'111.7
2014-Aug-13 17:26N 47°55' W 122°29'1011.2
2014-Aug-13 16:33N 47°45' W 122°25'010.6
2014-Aug-13 16:32N 47°45' W 122°25'4 3.9
2014-Aug-13 15:33N 47°41' W 122°25'0 1.0
2014-Aug-13 15:32N 47°41' W 122°25'0 0.5
2014-Aug-13 14:33N 47°41' W 122°26'0 1.5
2014-Aug-13 14:32N 47°40' W 122°26'6 5.8
2014-Aug-13 13:33N 47°35' W 122°22'0 0.0
2014-Aug-13 13:32N 47°35' W 122°22'0 0.0
2014-Aug-13 12:33N 47°35' W 122°22'0 0.0
2014-Aug-13 12:32N 47°35' W 122°22'0 0.0
2014-Aug-13 11:33N 47°35' W 122°22'0 0.0
2014-Aug-13 11:32N 47°35' W 122°22'0 0.0
2014-Aug-13 10:33N 47°35' W 122°22'0 0.0
2014-Aug-13 10:31N 47°35' W 122°22'0 0.0
2014-Aug-13 09:33N 47°35' W 122°22'0 0.2
2014-Aug-13 09:31N 47°35' W 122°22'0 0.0
2014-Aug-13 08:33N 47°35' W 122°22'0 0.0
2014-Aug-13 08:31N 47°35' W 122°22'1 0.7
2014-Aug-13 07:33N 47°35' W 122°21'0 0.0
2014-Aug-13 07:31N 47°35' W 122°21'0 0.0
2014-Aug-13 06:33N 47°35' W 122°21'0 0.0
2014-Aug-13 06:31N 47°35' W 122°21'0 0.0
2014-Aug-13 05:35N 47°35' W 122°21'0 0.0
2014-Aug-13 05:33N 47°35' W 122°21'0 0.0
2014-Aug-13 04:33N 47°35' W 122°21'0 0.0
2014-Aug-13 04:31N 47°35' W 122°21'0 0.0
2014-Aug-13 03:33N 47°35' W 122°21'0 0.0
2014-Aug-13 03:31N 47°35' W 122°21'6 5.8
2014-Aug-13 02:33N 47°39' W 122°27'011.4
2014-Aug-13 02:31N 47°40' W 122°27'2 2.2
2014-Aug-13 01:33N 47°40' W 122°23'0 0.0
2014-Aug-13 01:30N 47°40' W 122°23'1 1.3
2014-Aug-13 00:33N 47°39' W 122°22'0 0.0
2014-Aug-13 00:30N 47°39' W 122°22'0 0.0
2014-Aug-12 23:34N 47°39' W 122°22'0 0.0
2014-Aug-12 23:30N 47°39' W 122°22'0 0.0
2014-Aug-12 22:33N 47°39' W 122°22'0 0.0
2014-Aug-12 22:30N 47°39' W 122°22'0 0.0
2014-Aug-12 21:33N 47°39' W 122°22'0 0.0
2014-Aug-12 21:30N 47°39' W 122°22'0 0.0
2014-Aug-12 20:33N 47°39' W 122°22'0 0.0
2014-Aug-12 20:30N 47°39' W 122°22'0 0.0
2014-Aug-12 19:33N 47°39' W 122°22'0 0.0
2014-Aug-12 19:30N 47°39' W 122°22'0 0.0
2014-Aug-12 18:33N 47°39' W 122°22'0 0.0
2014-Aug-12 18:30N 47°39' W 122°22'0 0.0
2014-Aug-12 17:31N 47°39' W 122°22'0 0.0
2014-Aug-12 17:29N 47°39' W 122°22'0 0.0
2014-Aug-12 16:29N 47°39' W 122°22'0 0.0
2014-Aug-12 16:28N 47°39' W 122°22'0 0.0
2014-Aug-12 15:33N 47°39' W 122°22'0 0.0
2014-Aug-12 15:33N 47°39' W 122°22'0 0.0
2014-Aug-12 14:34N 47°39' W 122°22'0 0.0
2014-Aug-12 14:33N 47°39' W 122°22'0 0.0
2014-Aug-12 13:34N 47°39' W 122°22'0 0.0
2014-Aug-12 13:33N 47°39' W 122°22'0 0.0
2014-Aug-12 12:33N 47°39' W 122°22'0 0.0
2014-Aug-12 11:33N 47°39' W 122°22'0 0.0
2014-Aug-12 11:33N 47°39' W 122°22'0 0.0
2014-Aug-12 10:34N 47°39' W 122°22'0 0.0
2014-Aug-12 10:33N 47°39' W 122°22'0 0.0
2014-Aug-12 08:46N 47°39' W 122°22'0 0.0
2014-Aug-12 08:33N 47°39' W 122°22'0 0.0
2014-Aug-12 08:31N 47°39' W 122°22'0 0.0
2014-Aug-12 07:33N 47°39' W 122°22'0 0.0
2014-Aug-12 07:31N 47°39' W 122°22'0 0.0
2014-Aug-12 06:34N 47°39' W 122°22'0 0.0
2014-Aug-12 06:31N 47°39' W 122°22'0 0.0
2014-Aug-12 05:56N 47°39' W 122°22'0 0.0
2014-Aug-12 05:34N 47°39' W 122°22'0 0.0
2014-Aug-12 04:34N 47°39' W 122°22'0 0.0
2014-Aug-12 04:31N 47°39' W 122°22'0 0.0
2014-Aug-12 03:34N 47°39' W 122°22'0 0.0
2014-Aug-12 03:31N 47°39' W 122°22'0 0.0
2014-Aug-12 02:34N 47°39' W 122°22'0 0.0
2014-Aug-12 02:31N 47°39' W 122°22'0 0.0
2014-Aug-12 01:33N 47°39' W 122°22'0 0.0
2014-Aug-12 01:30N 47°39' W 122°22'0 0.0
2014-Aug-12 00:33N 47°39' W 122°22'0 0.0
2014-Aug-12 00:30N 47°39' W 122°22'0 0.0
2014-Aug-11 23:33N 47°39' W 122°22'0 0.0
2014-Aug-11 23:30N 47°39' W 122°22'0 0.0
2014-Aug-11 22:34N 47°39' W 122°22'0 0.0
2014-Aug-11 22:30N 47°39' W 122°22'0 0.0
2014-Aug-11 21:34N 47°39' W 122°22'0 0.0
2014-Aug-11 21:30N 47°39' W 122°22'0 0.0
2014-Aug-11 20:34N 47°39' W 122°22'0 0.0
2014-Aug-11 20:30N 47°39' W 122°22'0 0.0
2014-Aug-11 19:08N 47°39' W 122°22'0 0.0
2014-Aug-11 19:08N 47°39' W 122°22'0 0.0
2014-Aug-11 18:34N 47°39' W 122°22'0 0.0
2014-Aug-11 18:33N 47°39' W 122°22'0 0.0
2014-Aug-11 17:33N 47°39' W 122°22'0 0.0
2014-Aug-11 17:33N 47°39' W 122°22'0 0.3
2014-Aug-11 16:34N 47°39' W 122°22'0 5.3
2014-Aug-11 16:32N 47°39' W 122°22'1 1.1
2014-Aug-11 15:33N 47°40' W 122°24'0 0.0
2014-Aug-11 15:32N 47°40' W 122°24'0 0.2
2014-Aug-11 14:34N 47°40' W 122°24'0 3.7
2014-Aug-11 14:32N 47°40' W 122°24'1 1.3
2014-Aug-11 13:33N 47°41' W 122°25'0 0.0
2014-Aug-11 13:32N 47°41' W 122°25'6 6.0
2014-Aug-11 12:33N 47°35' W 122°22'0 0.0
2014-Aug-11 12:31N 47°35' W 122°22'0 0.2
2014-Aug-11 11:33N 47°36' W 122°22'0 0.0
2014-Aug-11 11:32N 47°36' W 122°22'4 4.0
2014-Aug-11 10:33N 47°38' W 122°27'0 5.0
2014-Aug-11 10:31N 47°38' W 122°27'5 5.3
2014-Aug-11 09:34N 47°43' W 122°28'0 5.2
2014-Aug-11 09:31N 47°43' W 122°28'6 6.1
2014-Aug-11 08:34N 47°49' W 122°28'0 5.2
2014-Aug-11 08:31N 47°49' W 122°28'6 6.1
2014-Aug-11 07:34N 47°55' W 122°31'0 5.7
2014-Aug-11 07:31N 47°55' W 122°31'7 5.8
2014-Aug-11 06:20N 48°00' W 122°38'3 4.8
2014-Aug-11 05:39N 48°03' W 122°39'22 6.1
2014-Aug-11 02:08N 48°25' W 122°45'5 7.7
2014-Aug-11 01:31N 48°29' W 122°45'6 6.1
2014-Aug-11 00:27N 48°36' W 122°45'4 4.4
2014-Aug-10 23:33N 48°40' W 122°44'7 5.8
2014-Aug-10 22:23N 48°45' W 122°49'6 7.5
2014-Aug-10 21:32N 48°49' W 122°57'8 7.9
2014-Aug-10 20:34N 48°53' W 123°06'9 8.5
2014-Aug-10 19:33N 48°59' W 123°17'9 8.6
2014-Aug-10 18:33N 49°04' W 123°27'9 9.1
2014-Aug-10 17:33N 49°10' W 123°37'9 9.5
2014-Aug-10 16:33N 49°17' W 123°48'12 9.3
2014-Aug-10 15:12N 49°25' W 124°02'142 7.1
2014-Aug-09 19:09N 50°45' W 127°05'6 9.3
2014-Aug-09 18:33N 50°48' W 127°12'9 9.3
2014-Aug-09 17:33N 50°54' W 127°23'9 9.2
2014-Aug-09 16:33N 50°60' W 127°34'9 8.5
2014-Aug-09 15:33N 51°05' W 127°45'  

Dump ship's entire track history